createdAt,value
2022-11-27T00:02:10.775Z,5.28
2022-11-27T00:04:38.271Z,6.85
2022-11-27T00:07:05.779Z,6.15
2022-11-27T00:09:33.749Z,7.70
2022-11-27T00:12:01.253Z,7.18
2022-11-27T00:14:28.733Z,6.28
2022-11-27T00:16:57.877Z,7.43
2022-11-27T00:19:25.254Z,7.60
2022-11-27T00:21:52.861Z,7.53
2022-11-27T00:24:20.537Z,5.80
2022-11-27T00:26:50.010Z,6.47
2022-11-27T00:29:17.446Z,6.25
2022-11-27T00:31:45.306Z,6.25
2022-11-27T00:34:12.871Z,5.72
2022-11-27T00:36:43.933Z,5.90
2022-11-27T00:39:14.212Z,4.40
2022-11-27T00:41:41.748Z,5.38
2022-11-27T00:44:09.077Z,5.20
2022-11-27T00:49:22.747Z,5.70
2022-11-27T00:51:50.190Z,6.57
2022-11-27T00:54:18.575Z,7.10
2022-11-27T00:56:48.129Z,6.78
2022-11-27T00:59:15.940Z,7.45
2022-11-27T01:06:52.061Z,5.82
2022-11-27T01:09:19.542Z,6.38
2022-11-27T01:11:47.049Z,5.80
2022-11-27T01:14:17.188Z,6.30
2022-11-27T01:16:44.745Z,6.80
2022-11-27T01:19:13.857Z,5.82
2022-11-27T01:21:41.753Z,5.55
2022-11-27T01:24:12.327Z,5.50
2022-11-27T01:26:39.826Z,4.85
2022-11-27T01:29:07.382Z,3.55
2022-11-27T01:31:35.521Z,5.20
2022-11-27T01:34:15.652Z,4.25
2022-11-27T01:36:46.484Z,5.78
2022-11-27T01:39:34.170Z,6.60
2022-11-27T01:42:01.721Z,5.88
2022-11-27T01:44:29.130Z,6.13
2022-11-27T01:47:13.672Z,5.93
2022-11-27T01:49:49.462Z,5.18
2022-11-27T01:52:40.168Z,5.47
2022-11-27T01:55:07.639Z,5.80
2022-11-27T01:57:41.745Z,6.15
2022-11-27T02:00:13.376Z,5.57
2022-11-27T02:02:42.897Z,5.75
2022-11-27T02:05:13.480Z,5.80
2022-11-27T02:07:41.188Z,4.88
2022-11-27T02:10:09.254Z,4.80
2022-11-27T02:12:50.546Z,5.38
2022-11-27T02:15:40.685Z,4.20
2022-11-27T02:18:17.256Z,4.00
2022-11-27T02:21:09.663Z,5.70
2022-11-27T02:23:56.591Z,5.40
2022-11-27T02:26:42.645Z,4.90
2022-11-27T02:29:14.859Z,7.00
2022-11-27T02:31:54.163Z,5.63
2022-11-27T02:34:37.793Z,6.28
2022-11-27T02:37:17.307Z,5.75
2022-11-27T02:39:56.544Z,5.22
2022-11-27T02:42:24.673Z,5.70
2022-11-27T02:45:04.288Z,4.95
2022-11-27T02:50:29.417Z,4.18
2022-11-27T02:55:50.826Z,4.55
2022-11-27T02:58:22.259Z,5.70
2022-11-27T03:00:51.133Z,5.22
2022-11-27T03:05:52.776Z,5.13
2022-11-27T03:08:32.947Z,4.63
2022-11-27T03:11:05.918Z,4.72
2022-11-27T03:13:41.285Z,5.05
2022-11-27T03:16:23.677Z,4.70
2022-11-27T03:19:01.635Z,4.60
2022-11-27T03:21:45.882Z,4.43
2022-11-27T03:24:14.266Z,5.00
2022-11-27T03:26:41.834Z,5.18
2022-11-27T03:29:15.437Z,5.28
2022-11-27T03:31:43.993Z,5.32
2022-11-27T03:34:12.341Z,5.28
2022-11-27T03:36:39.743Z,4.97
2022-11-27T03:39:07.536Z,4.70
2022-11-27T03:42:19.901Z,3.75
2022-11-27T03:44:51.284Z,5.47
2022-11-27T03:47:43.181Z,4.97
2022-11-27T03:50:16.835Z,5.43
2022-11-27T03:52:47.673Z,5.13
2022-11-27T03:55:27.670Z,4.40
2022-11-27T03:58:09.754Z,4.35
2022-11-27T04:00:41.501Z,5.80
2022-11-27T04:03:13.667Z,5.38
2022-11-27T04:05:41.556Z,5.20
2022-11-27T04:08:09.031Z,6.28
2022-11-27T04:10:36.568Z,6.57
2022-11-27T04:13:03.951Z,7.82
2022-11-27T04:15:50.519Z,6.90
2022-11-27T04:18:19.340Z,5.75
2022-11-27T04:20:46.736Z,5.18
2022-11-27T04:23:14.237Z,4.13
2022-11-27T04:25:42.160Z,5.47
2022-11-27T04:28:09.737Z,6.50
2022-11-27T04:30:42.434Z,7.90
2022-11-27T04:33:10.007Z,7.00
2022-11-27T04:35:37.449Z,4.43
2022-11-27T04:38:04.940Z,6.25
2022-11-27T04:40:32.407Z,5.93
2022-11-27T04:43:00.267Z,5.80
2022-11-27T04:45:38.293Z,6.05
2022-11-27T04:48:06.545Z,5.65
2022-11-27T04:50:33.971Z,5.90
2022-11-27T04:53:01.636Z,5.93
2022-11-27T04:55:29.151Z,5.75
2022-11-27T04:57:56.780Z,5.68
2022-11-27T05:00:24.228Z,5.35
2022-11-27T05:02:51.881Z,5.22
2022-11-27T05:05:19.332Z,5.60
2022-11-27T05:07:46.823Z,6.53
2022-11-27T05:10:14.353Z,6.43
2022-11-27T05:12:43.323Z,7.18
2022-11-27T05:15:10.914Z,5.50
2022-11-27T05:17:38.495Z,4.28
2022-11-27T05:20:06.914Z,4.57
2022-11-27T05:22:34.423Z,3.50
2022-11-27T05:25:01.917Z,4.68
2022-11-27T05:27:29.759Z,5.18
2022-11-27T05:29:57.144Z,5.63
2022-11-27T05:32:24.756Z,6.13
2022-11-27T05:34:52.330Z,6.45
2022-11-27T05:37:20.216Z,6.22
2022-11-27T05:39:47.856Z,6.85
2022-11-27T05:42:15.623Z,6.15
2022-11-27T05:44:43.209Z,5.95
2022-11-27T05:47:10.997Z,6.28
2022-11-27T05:49:57.192Z,6.72
2022-11-27T05:52:24.878Z,6.90
2022-11-27T05:54:52.243Z,7.63
2022-11-27T05:57:19.658Z,6.95
2022-11-27T05:59:47.077Z,7.00
2022-11-27T06:02:20.706Z,6.15
2022-11-27T06:04:50.360Z,6.00
2022-11-27T06:07:18.281Z,6.25
2022-11-27T06:09:45.945Z,6.25
2022-11-27T06:12:13.411Z,7.03
2022-11-27T06:14:41.205Z,6.57
2022-11-27T06:17:08.864Z,6.93
2022-11-27T06:19:36.268Z,7.03
2022-11-27T06:22:03.762Z,6.72
2022-11-27T06:24:31.154Z,7.57
2022-11-27T06:26:58.712Z,6.95
2022-11-27T06:29:26.089Z,6.32
2022-11-27T06:31:53.581Z,6.47
2022-11-27T06:34:21.084Z,7.05
2022-11-27T06:36:49.622Z,6.68
2022-11-27T06:39:17.068Z,6.93
2022-11-27T06:41:44.620Z,6.53
2022-11-27T06:44:12.031Z,6.72
2022-11-27T06:46:39.829Z,6.43
2022-11-27T06:49:07.434Z,6.60
2022-11-27T06:51:34.920Z,6.25
2022-11-27T06:54:03.339Z,5.93
2022-11-27T06:56:32.144Z,6.03
2022-11-27T06:59:01.241Z,7.07
2022-11-27T07:01:30.722Z,6.05
2022-11-27T07:03:59.058Z,6.57
2022-11-27T07:06:27.432Z,6.65
2022-11-27T07:08:55.853Z,5.75
2022-11-27T07:11:26.529Z,6.32
2022-11-27T07:13:57.367Z,6.38
2022-11-27T07:16:25.714Z,7.15
2022-11-27T07:21:38.374Z,6.95
2022-11-27T07:24:06.207Z,7.53
2022-11-27T07:26:33.679Z,5.88
2022-11-27T07:29:01.255Z,6.78
2022-11-27T07:31:30.669Z,5.43
2022-11-27T07:36:40.190Z,6.25
2022-11-27T07:39:07.632Z,5.70
2022-11-27T07:41:57.372Z,7.15
2022-11-27T07:44:27.602Z,6.30
2022-11-27T07:46:54.937Z,6.65
2022-11-27T07:49:22.446Z,6.57
2022-11-27T07:51:50.059Z,6.18
2022-11-27T07:57:01.946Z,6.03
2022-11-27T07:59:29.969Z,6.00
2022-11-27T08:01:57.531Z,6.47
2022-11-27T08:04:25.078Z,7.13
2022-11-27T08:06:52.711Z,6.57
2022-11-27T08:09:20.091Z,7.28
2022-11-27T08:11:47.758Z,6.35
2022-11-27T08:14:15.383Z,6.82
2022-11-27T08:16:42.871Z,7.25
2022-11-27T08:19:11.098Z,7.07
2022-11-27T08:21:38.615Z,7.30
2022-11-27T08:24:06.484Z,7.03
2022-11-27T08:26:34.151Z,6.50
2022-11-27T08:29:01.637Z,6.18
2022-11-27T08:31:29.287Z,6.38
2022-11-27T08:33:56.801Z,6.78
2022-11-27T08:36:27.085Z,6.07
2022-11-27T08:38:55.950Z,8.23
2022-11-27T08:41:23.554Z,8.38
2022-11-27T08:43:50.928Z,5.85
2022-11-27T08:46:18.634Z,7.07
2022-11-27T08:48:46.489Z,7.85
2022-11-27T08:51:15.694Z,7.05
2022-11-27T08:53:46.224Z,7.82
2022-11-27T08:56:20.254Z,6.95
2022-11-27T08:58:48.011Z,5.38
2022-11-27T09:01:28.092Z,6.95
2022-11-27T09:03:56.370Z,6.38
2022-11-27T09:06:28.372Z,5.88
2022-11-27T09:09:04.993Z,7.72
2022-11-27T09:11:35.639Z,5.10
2022-11-27T09:14:05.110Z,5.90
2022-11-27T09:16:33.268Z,3.05
2022-11-27T09:19:01.053Z,5.07
2022-11-27T09:21:33.170Z,6.05
2022-11-27T09:24:02.313Z,6.80
2022-11-27T09:26:30.856Z,6.72
2022-11-27T09:28:59.378Z,6.75
2022-11-27T09:33:55.194Z,7.43
2022-11-27T09:36:24.860Z,8.35
2022-11-27T09:38:52.764Z,9.15
2022-11-27T09:44:07.104Z,9.98
2022-11-27T09:46:40.138Z,10.20
2022-11-27T09:49:18.954Z,7.68
2022-11-27T09:51:58.880Z,7.63
2022-11-27T09:54:39.774Z,6.70
2022-11-27T09:57:15.561Z,7.05
2022-11-27T09:59:51.097Z,7.53
2022-11-27T10:02:29.143Z,6.63
2022-11-27T10:05:15.504Z,7.18
2022-11-27T10:07:54.825Z,8.02
2022-11-27T10:11:01.916Z,7.03
2022-11-27T10:16:32.153Z,7.00
2022-11-27T10:19:14.082Z,8.80
2022-11-27T10:22:16.560Z,7.40
2022-11-27T10:25:03.516Z,8.40
2022-11-27T10:27:45.623Z,8.60
2022-11-27T10:30:19.731Z,6.13
2022-11-27T10:32:56.172Z,7.30
2022-11-27T10:35:26.878Z,8.43
2022-11-27T10:38:24.384Z,6.93
2022-11-27T10:41:18.554Z,7.90
2022-11-27T10:44:06.564Z,6.90
2022-11-27T10:49:20.847Z,7.07
2022-11-27T10:51:48.301Z,7.28
2022-11-27T10:54:26.738Z,6.65
2022-11-27T10:57:13.087Z,6.75
2022-11-27T10:59:49.004Z,5.95
2022-11-27T11:08:19.719Z,11.10
2022-11-27T11:10:51.885Z,11.00
2022-11-27T11:13:23.052Z,11.05
2022-11-27T11:16:01.700Z,10.80
2022-11-27T11:18:34.855Z,10.43
2022-11-27T11:24:10.124Z,10.00
2022-11-27T11:27:14.652Z,9.98
2022-11-27T11:30:00.967Z,8.73
2022-11-27T11:32:33.666Z,8.57
2022-11-27T11:35:34.829Z,9.50
2022-11-27T11:38:13.451Z,8.93
2022-11-27T11:40:44.935Z,8.75
2022-11-27T11:43:41.579Z,7.15
2022-11-27T11:46:19.449Z,7.15
2022-11-27T11:48:55.827Z,6.38
2022-11-27T11:51:37.316Z,7.60
2022-11-27T11:56:52.694Z,7.05
2022-11-27T11:59:20.073Z,6.57
2022-11-27T12:02:06.462Z,7.20
2022-11-27T12:04:46.243Z,7.10
2022-11-27T12:07:52.008Z,8.15
2022-11-27T12:10:30.358Z,6.15
2022-11-27T12:12:58.355Z,6.25
2022-11-27T12:15:33.300Z,7.38
2022-11-27T12:18:10.266Z,6.57
2022-11-27T12:20:46.555Z,5.93
2022-11-27T12:23:37.009Z,6.07
2022-11-27T12:26:28.978Z,5.95
2022-11-27T12:29:28.407Z,6.88
2022-11-27T12:32:10.378Z,6.18
2022-11-27T12:34:59.165Z,6.90
2022-11-27T12:37:54.572Z,7.25
2022-11-27T12:40:53.084Z,6.55
2022-11-27T12:43:29.043Z,6.78
2022-11-27T12:45:56.395Z,6.25
2022-11-27T12:48:33.895Z,6.00
2022-11-27T12:51:09.156Z,6.38
2022-11-27T12:54:11.908Z,7.47
2022-11-27T12:56:48.655Z,5.93
2022-11-27T13:02:42.775Z,5.20
2022-11-27T13:05:27.501Z,4.53
2022-11-27T13:08:01.202Z,5.40
2022-11-27T13:10:47.728Z,5.40
2022-11-27T13:13:40.708Z,5.15
2022-11-27T13:16:15.787Z,5.43
2022-11-27T13:18:49.051Z,5.53
2022-11-27T13:21:23.115Z,4.78
2022-11-27T13:23:51.884Z,4.93
2022-11-27T13:29:43.335Z,5.50
2022-11-27T13:32:21.820Z,5.55
2022-11-27T13:34:51.164Z,5.57
2022-11-27T13:37:41.731Z,4.03
2022-11-27T13:40:33.051Z,5.40
2022-11-27T13:43:06.851Z,5.45
2022-11-27T13:45:37.812Z,4.88
2022-11-27T13:48:36.822Z,4.45
2022-11-27T13:51:07.337Z,4.72
2022-11-27T13:53:40.757Z,4.70
2022-11-27T13:56:09.756Z,5.45
2022-11-27T13:58:39.832Z,5.70
2022-11-27T14:01:22.846Z,5.28
2022-11-27T14:03:50.910Z,4.70
2022-11-27T14:06:32.113Z,4.40
2022-11-27T14:09:02.446Z,4.47
2022-11-27T14:11:51.165Z,4.93
2022-11-27T14:14:19.888Z,5.40
2022-11-27T14:19:34.622Z,5.15
2022-11-27T14:22:13.852Z,4.30
2022-11-27T14:25:50.541Z,4.00
2022-11-27T14:27:36.866Z,4.60
2022-11-27T14:30:35.525Z,4.22
2022-11-27T14:33:04.781Z,3.53
2022-11-27T14:35:32.440Z,4.95
2022-11-27T14:38:11.411Z,4.30
2022-11-27T14:40:39.518Z,3.80
2022-11-27T14:43:14.916Z,4.32
2022-11-27T14:46:01.706Z,4.00
2022-11-27T14:48:41.690Z,3.85
2022-11-27T14:51:21.542Z,3.40
2022-11-27T14:53:52.363Z,3.75
2022-11-27T14:56:20.177Z,3.92
2022-11-27T14:58:53.278Z,3.40
2022-11-27T15:01:24.998Z,3.47
2022-11-27T15:04:06.499Z,4.00
2022-11-27T15:06:42.197Z,3.50
2022-11-27T15:09:31.829Z,2.47
2022-11-27T15:12:09.513Z,3.20
2022-11-27T15:14:39.594Z,2.90
2022-11-27T15:17:15.693Z,3.45
2022-11-27T15:19:44.017Z,2.97
2022-11-27T15:22:17.677Z,3.47
2022-11-27T15:24:45.316Z,2.58
2022-11-27T15:30:12.491Z,2.88
2022-11-27T15:32:53.513Z,3.00
2022-11-27T15:35:30.096Z,2.78
2022-11-27T15:38:04.569Z,2.63
2022-11-27T15:40:36.611Z,2.63
2022-11-27T15:43:11.981Z,2.95
2022-11-27T15:45:40.685Z,3.00
2022-11-27T15:50:45.479Z,2.15
2022-11-27T15:53:17.743Z,2.90
2022-11-27T15:55:45.422Z,3.13
2022-11-27T15:58:12.852Z,3.20
2022-11-27T16:00:40.912Z,2.38
2022-11-27T16:03:08.414Z,3.10
2022-11-27T16:05:36.875Z,3.10
2022-11-27T16:08:05.718Z,3.10
2022-11-27T16:10:33.835Z,2.47
2022-11-27T16:13:01.272Z,2.95
2022-11-27T16:15:32.800Z,3.10
2022-11-27T16:18:18.828Z,2.75
2022-11-27T16:20:46.471Z,3.03
2022-11-27T16:23:13.887Z,3.33
2022-11-27T16:25:41.491Z,3.05
2022-11-27T16:28:16.423Z,3.20
2022-11-27T16:30:47.534Z,2.60
2022-11-27T16:33:16.832Z,2.70
2022-11-27T16:35:44.557Z,3.17
2022-11-27T16:38:12.026Z,2.95
2022-11-27T16:40:40.259Z,2.45
2022-11-27T16:43:07.738Z,2.33
2022-11-27T16:45:37.144Z,3.45
2022-11-27T16:48:05.320Z,3.17
2022-11-27T16:50:34.803Z,2.35
2022-11-27T16:53:02.556Z,3.03
2022-11-27T16:55:30.196Z,2.90
2022-11-27T16:57:59.302Z,3.60
2022-11-27T17:00:29.323Z,3.03
2022-11-27T17:02:58.263Z,3.53
2022-11-27T17:05:27.292Z,3.13
2022-11-27T17:07:55.420Z,3.22
2022-11-27T17:10:24.864Z,2.42
2022-11-27T17:12:52.361Z,2.72
2022-11-27T17:15:20.045Z,3.17
2022-11-27T17:17:48.145Z,2.67
2022-11-27T17:20:17.067Z,2.35
2022-11-27T17:25:13.552Z,2.03
2022-11-27T17:27:42.003Z,2.03
2022-11-27T17:32:37.691Z,1.50
2022-11-27T17:35:06.338Z,2.42
2022-11-27T17:37:34.124Z,2.55
2022-11-27T17:40:02.307Z,2.60
2022-11-27T17:42:31.370Z,3.10
2022-11-27T17:45:03.194Z,3.45
2022-11-27T17:47:31.079Z,4.05
2022-11-27T17:50:00.632Z,4.28
2022-11-27T17:57:25.150Z,1.85
2022-11-27T17:59:53.043Z,1.85
2022-11-27T18:02:20.697Z,2.20
2022-11-27T18:04:48.462Z,1.90
2022-11-27T18:07:17.573Z,1.90
2022-11-27T18:09:45.264Z,2.40
2022-11-27T18:12:14.176Z,2.53
2022-11-27T18:14:42.873Z,2.65
2022-11-27T18:17:10.523Z,2.25
2022-11-27T18:19:38.196Z,2.10
2022-11-27T18:22:08.506Z,1.73
2022-11-27T18:24:36.899Z,2.83
2022-11-27T18:27:08.758Z,2.40
2022-11-27T18:29:39.147Z,2.60
2022-11-27T18:32:07.757Z,3.05
2022-11-27T18:34:35.662Z,3.50
2022-11-27T18:37:04.685Z,3.83
2022-11-27T18:39:32.462Z,3.13
2022-11-27T18:42:00.398Z,2.30
2022-11-27T18:44:28.100Z,1.83
2022-11-27T18:52:28.036Z,2.15
2022-11-27T18:57:43.393Z,2.30
2022-11-27T19:00:11.692Z,2.92
2022-11-27T19:02:39.733Z,2.90
2022-11-27T19:05:07.951Z,3.13
2022-11-27T19:07:54.513Z,3.80
2022-11-27T19:10:22.257Z,3.78
2022-11-27T19:12:49.753Z,3.67
2022-11-27T19:15:18.184Z,4.03
2022-11-27T19:17:45.867Z,4.70
2022-11-27T19:20:13.689Z,4.75
2022-11-27T19:22:42.713Z,3.90
2022-11-27T19:25:10.803Z,2.17
2022-11-27T19:27:38.494Z,2.85
2022-11-27T19:30:06.941Z,3.22
2022-11-27T19:35:06.945Z,4.15
2022-11-27T19:37:35.654Z,3.90
2022-11-27T19:40:05.912Z,3.63
2022-11-27T19:42:33.630Z,2.40
2022-11-27T19:45:01.160Z,2.17
2022-11-27T19:47:29.146Z,1.90
2022-11-27T19:49:56.626Z,2.53
2022-11-27T19:52:24.358Z,3.17
2022-11-27T19:54:52.185Z,3.47
2022-11-27T19:57:19.989Z,3.28
2022-11-27T19:59:48.925Z,3.55
2022-11-27T20:02:17.330Z,2.95
2022-11-27T20:04:44.885Z,3.67
2022-11-27T20:07:12.655Z,3.80
2022-11-27T20:09:40.255Z,3.03
2022-11-27T20:12:07.807Z,3.13
2022-11-27T20:14:35.504Z,2.95
2022-11-27T20:17:03.712Z,3.42
2022-11-27T20:19:31.229Z,2.80
2022-11-27T20:21:58.857Z,2.28
2022-11-27T20:24:26.334Z,2.88
2022-11-27T20:26:53.940Z,2.70
2022-11-27T20:29:21.624Z,2.05
2022-11-27T20:31:49.349Z,1.75
2022-11-27T20:34:21.044Z,2.10
2022-11-27T20:36:49.324Z,1.45
2022-11-27T20:39:21.375Z,2.30
2022-11-27T20:41:52.149Z,2.55
2022-11-27T20:44:20.124Z,2.65
2022-11-27T20:46:48.278Z,2.10
2022-11-27T20:49:17.625Z,2.13
2022-11-27T20:51:46.921Z,1.98
2022-11-27T20:54:14.483Z,1.88
2022-11-27T20:56:46.910Z,1.80
2022-11-27T20:59:14.565Z,1.33
2022-11-27T21:01:42.185Z,1.95
2022-11-27T21:04:19.766Z,2.00
2022-11-27T21:06:48.159Z,1.27
2022-11-27T21:09:15.658Z,1.73
2022-11-27T21:11:44.172Z,1.60
2022-11-27T21:14:14.982Z,1.55
2022-11-27T21:16:48.882Z,1.45
2022-11-27T21:19:27.969Z,2.17
2022-11-27T21:21:57.375Z,1.63
2022-11-27T21:24:28.917Z,2.17
2022-11-27T21:26:56.801Z,1.98
2022-11-27T21:29:25.971Z,2.50
2022-11-27T21:31:55.557Z,2.63
2022-11-27T21:34:24.682Z,2.15
2022-11-27T21:36:52.241Z,2.08
2022-11-27T21:39:22.326Z,1.67
2022-11-27T21:41:55.422Z,2.20
2022-11-27T21:44:25.182Z,1.63
2022-11-27T21:46:53.236Z,1.50
2022-11-27T21:49:21.640Z,1.55
2022-11-27T21:51:53.868Z,1.52
2022-11-27T21:54:28.728Z,1.42
2022-11-27T21:56:57.148Z,1.50
2022-11-27T21:59:24.680Z,1.73
2022-11-27T22:01:52.455Z,1.65
2022-11-27T22:04:20.145Z,1.70
2022-11-27T22:06:48.356Z,1.73
2022-11-27T22:09:16.458Z,1.33
2022-11-27T22:11:45.583Z,1.42
2022-11-27T22:14:14.383Z,1.70
2022-11-27T22:19:14.952Z,1.40
2022-11-27T22:21:44.415Z,1.63
2022-11-27T22:24:18.388Z,2.13
2022-11-27T22:26:51.132Z,1.85
2022-11-27T22:29:18.595Z,2.67
2022-11-27T22:31:47.032Z,2.67
2022-11-27T22:34:16.775Z,1.83
2022-11-27T22:36:45.003Z,1.80
2022-11-27T22:39:12.853Z,2.25
2022-11-27T22:41:41.289Z,1.85
2022-11-27T22:44:16.168Z,1.42
2022-11-27T22:49:26.650Z,1.40
2022-11-27T22:51:54.266Z,1.45
2022-11-27T22:54:23.126Z,1.27
2022-11-27T22:59:33.779Z,1.33
2022-11-27T23:02:05.942Z,1.52
2022-11-27T23:04:35.159Z,1.60
2022-11-27T23:07:03.237Z,1.48
2022-11-27T23:09:31.411Z,1.17
2022-11-27T23:11:59.457Z,1.50
2022-11-27T23:14:27.344Z,1.75
2022-11-27T23:16:55.073Z,1.30
2022-11-27T23:19:22.495Z,1.40
2022-11-27T23:21:49.975Z,1.60
2022-11-27T23:24:17.568Z,1.85
2022-11-27T23:29:28.213Z,1.48
2022-11-27T23:31:55.641Z,1.60
2022-11-27T23:34:23.427Z,1.40
2022-11-27T23:36:51.041Z,1.70
2022-11-27T23:39:18.461Z,1.60
2022-11-27T23:41:48.566Z,1.70
2022-11-27T23:44:16.259Z,1.17
2022-11-27T23:46:44.007Z,1.63
2022-11-27T23:49:11.599Z,1.48
2022-11-27T23:51:39.105Z,1.30
2022-11-27T23:54:09.473Z,1.20
2022-11-27T23:56:39.061Z,1.30
2022-11-27T23:59:06.666Z,1.92
